sensor_id;sensor_type;location;lat;lon;timestamp;temperature;humidity
77523;SHT31;66637;-29.628;-49.938;2024-02-23T00:00:37;26.23;88.87
77523;SHT31;66637;-29.628;-49.938;2024-02-23T00:03:12;26.27;88.96
77523;SHT31;66637;-29.628;-49.938;2024-02-23T00:05:43;26.22;89.07
77523;SHT31;66637;-29.628;-49.938;2024-02-23T00:08:14;26.23;89.04
77523;SHT31;66637;-29.628;-49.938;2024-02-23T00:10:44;26.22;89.10
77523;SHT31;66637;-29.628;-49.938;2024-02-23T00:13:17;26.20;89.02
77523;SHT31;66637;-29.628;-49.938;2024-02-23T00:15:52;26.20;89.06
77523;SHT31;66637;-29.628;-49.938;2024-02-23T00:18:31;26.19;89.04
77523;SHT31;66637;-29.628;-49.938;2024-02-23T00:21:10;26.16;88.95
77523;SHT31;66637;-29.628;-49.938;2024-02-23T00:23:42;26.16;88.94
77523;SHT31;66637;-29.628;-49.938;2024-02-23T00:26:14;26.10;88.91
77523;SHT31;66637;-29.628;-49.938;2024-02-23T00:28:44;26.06;88.96
77523;SHT31;66637;-29.628;-49.938;2024-02-23T00:31:19;26.05;88.74
77523;SHT31;66637;-29.628;-49.938;2024-02-23T00:33:49;26.02;88.82
77523;SHT31;66637;-29.628;-49.938;2024-02-23T00:36:21;26.05;88.94
77523;SHT31;66637;-29.628;-49.938;2024-02-23T00:38:52;26.02;88.93
77523;SHT31;66637;-29.628;-49.938;2024-02-23T00:41:28;26.03;88.93
77523;SHT31;66637;-29.628;-49.938;2024-02-23T00:43:59;26.02;89.09
77523;SHT31;66637;-29.628;-49.938;2024-02-23T00:46:31;26.00;89.10
77523;SHT31;66637;-29.628;-49.938;2024-02-23T00:49:07;25.99;89.28
77523;SHT31;66637;-29.628;-49.938;2024-02-23T00:51:40;25.99;89.25
77523;SHT31;66637;-29.628;-49.938;2024-02-23T00:54:10;25.93;89.33
77523;SHT31;66637;-29.628;-49.938;2024-02-23T00:56:42;25.95;89.39
77523;SHT31;66637;-29.628;-49.938;2024-02-23T00:59:20;25.97;89.45
77523;SHT31;66637;-29.628;-49.938;2024-02-23T01:01:51;25.95;89.36
77523;SHT31;66637;-29.628;-49.938;2024-02-23T01:04:23;25.95;89.57
77523;SHT31;66637;-29.628;-49.938;2024-02-23T01:06:53;25.96;89.55
77523;SHT31;66637;-29.628;-49.938;2024-02-23T01:09:23;25.95;89.49
77523;SHT31;66637;-29.628;-49.938;2024-02-23T01:11:57;25.96;89.47
77523;SHT31;66637;-29.628;-49.938;2024-02-23T01:14:27;25.97;89.44
77523;SHT31;66637;-29.628;-49.938;2024-02-23T01:16:58;26.02;89.35
77523;SHT31;66637;-29.628;-49.938;2024-02-23T01:19:29;26.00;89.39
77523;SHT31;66637;-29.628;-49.938;2024-02-23T01:22:01;26.00;89.40
77523;SHT31;66637;-29.628;-49.938;2024-02-23T01:24:32;26.03;89.46
77523;SHT31;66637;-29.628;-49.938;2024-02-23T01:27:03;25.99;89.57
77523;SHT31;66637;-29.628;-49.938;2024-02-23T01:29:34;26.00;89.49
77523;SHT31;66637;-29.628;-49.938;2024-02-23T01:32:05;25.99;89.48
77523;SHT31;66637;-29.628;-49.938;2024-02-23T01:34:36;25.95;89.51
77523;SHT31;66637;-29.628;-49.938;2024-02-23T01:37:08;26.03;89.51
77523;SHT31;66637;-29.628;-49.938;2024-02-23T01:39:39;26.05;89.80
77523;SHT31;66637;-29.628;-49.938;2024-02-23T01:42:11;26.06;89.71
77523;SHT31;66637;-29.628;-49.938;2024-02-23T01:44:42;26.06;89.88
77523;SHT31;66637;-29.628;-49.938;2024-02-23T01:47:15;26.03;89.95
77523;SHT31;66637;-29.628;-49.938;2024-02-23T01:49:47;26.03;89.92
77523;SHT31;66637;-29.628;-49.938;2024-02-23T01:52:22;26.05;90.10
77523;SHT31;66637;-29.628;-49.938;2024-02-23T01:54:54;26.02;90.17
77523;SHT31;66637;-29.628;-49.938;2024-02-23T01:57:25;26.02;90.39
77523;SHT31;66637;-29.628;-49.938;2024-02-23T02:00:18;26.02;90.57
77523;SHT31;66637;-29.628;-49.938;2024-02-23T02:02:55;25.99;90.64
77523;SHT31;66637;-29.628;-49.938;2024-02-23T02:05:27;25.95;90.59
77523;SHT31;66637;-29.628;-49.938;2024-02-23T02:07:59;25.97;90.64
77523;SHT31;66637;-29.628;-49.938;2024-02-23T02:10:30;25.97;90.59
77523;SHT31;66637;-29.628;-49.938;2024-02-23T02:13:05;25.92;90.62
77523;SHT31;66637;-29.628;-49.938;2024-02-23T02:15:37;25.88;90.66
77523;SHT31;66637;-29.628;-49.938;2024-02-23T02:18:08;25.85;90.70
77523;SHT31;66637;-29.628;-49.938;2024-02-23T02:20:54;25.88;90.61
77523;SHT31;66637;-29.628;-49.938;2024-02-23T02:23:27;25.85;90.46
77523;SHT31;66637;-29.628;-49.938;2024-02-23T02:25:59;25.82;90.48
77523;SHT31;66637;-29.628;-49.938;2024-02-23T02:28:31;25.85;90.28
77523;SHT31;66637;-29.628;-49.938;2024-02-23T02:31:03;25.82;90.35
77523;SHT31;66637;-29.628;-49.938;2024-02-23T02:33:34;25.82;90.32
77523;SHT31;66637;-29.628;-49.938;2024-02-23T02:36:05;25.79;90.26
77523;SHT31;66637;-29.628;-49.938;2024-02-23T02:38:37;25.76;90.17
77523;SHT31;66637;-29.628;-49.938;2024-02-23T02:41:09;25.69;90.30
77523;SHT31;66637;-29.628;-49.938;2024-02-23T02:43:41;25.72;90.23
77523;SHT31;66637;-29.628;-49.938;2024-02-23T02:46:12;25.71;90.26
77523;SHT31;66637;-29.628;-49.938;2024-02-23T02:48:44;25.68;90.22
77523;SHT31;66637;-29.628;-49.938;2024-02-23T02:51:16;25.71;90.31
77523;SHT31;66637;-29.628;-49.938;2024-02-23T02:53:47;25.71;90.45
77523;SHT31;66637;-29.628;-49.938;2024-02-23T02:56:18;25.72;90.60
77523;SHT31;66637;-29.628;-49.938;2024-02-23T02:58:50;25.78;90.73
77523;SHT31;66637;-29.628;-49.938;2024-02-23T03:01:20;25.81;90.73
77523;SHT31;66637;-29.628;-49.938;2024-02-23T03:03:52;25.81;90.80
77523;SHT31;66637;-29.628;-49.938;2024-02-23T03:06:25;25.76;90.85
77523;SHT31;66637;-29.628;-49.938;2024-02-23T03:08:56;25.75;90.78
77523;SHT31;66637;-29.628;-49.938;2024-02-23T03:11:27;25.73;90.74
77523;SHT31;66637;-29.628;-49.938;2024-02-23T03:13:59;25.71;90.74
77523;SHT31;66637;-29.628;-49.938;2024-02-23T03:16:29;25.71;90.89
77523;SHT31;66637;-29.628;-49.938;2024-02-23T03:19:01;25.68;90.91
77523;SHT31;66637;-29.628;-49.938;2024-02-23T03:21:34;25.66;90.82
77523;SHT31;66637;-29.628;-49.938;2024-02-23T03:24:07;25.78;90.64
77523;SHT31;66637;-29.628;-49.938;2024-02-23T03:26:38;25.72;90.78
77523;SHT31;66637;-29.628;-49.938;2024-02-23T03:29:08;25.68;90.78
77523;SHT31;66637;-29.628;-49.938;2024-02-23T03:31:39;25.65;90.97
77523;SHT31;66637;-29.628;-49.938;2024-02-23T03:34:16;25.71;91.05
77523;SHT31;66637;-29.628;-49.938;2024-02-23T03:36:47;25.68;91.03
77523;SHT31;66637;-29.628;-49.938;2024-02-23T03:39:18;25.68;91.08
77523;SHT31;66637;-29.628;-49.938;2024-02-23T03:41:49;25.65;91.18
77523;SHT31;66637;-29.628;-49.938;2024-02-23T03:44:19;25.65;91.31
77523;SHT31;66637;-29.628;-49.938;2024-02-23T03:46:50;25.69;91.26
77523;SHT31;66637;-29.628;-49.938;2024-02-23T03:49:21;25.65;91.39
77523;SHT31;66637;-29.628;-49.938;2024-02-23T03:51:52;25.62;91.39
77523;SHT31;66637;-29.628;-49.938;2024-02-23T03:54:24;25.61;91.47
77523;SHT31;66637;-29.628;-49.938;2024-02-23T03:56:56;25.65;91.41
77523;SHT31;66637;-29.628;-49.938;2024-02-23T03:59:27;25.62;91.42
77523;SHT31;66637;-29.628;-49.938;2024-02-23T04:01:58;25.62;91.52
77523;SHT31;66637;-29.628;-49.938;2024-02-23T04:04:30;25.59;91.66
77523;SHT31;66637;-29.628;-49.938;2024-02-23T04:07:04;25.55;91.73
77523;SHT31;66637;-29.628;-49.938;2024-02-23T04:09:35;25.57;91.73
77523;SHT31;66637;-29.628;-49.938;2024-02-23T04:12:06;25.55;91.83
77523;SHT31;66637;-29.628;-49.938;2024-02-23T04:14:37;25.58;91.86
77523;SHT31;66637;-29.628;-49.938;2024-02-23T04:17:11;25.55;91.84
77523;SHT31;66637;-29.628;-49.938;2024-02-23T04:19:43;25.58;92.00
77523;SHT31;66637;-29.628;-49.938;2024-02-23T04:22:21;25.58;92.23
77523;SHT31;66637;-29.628;-49.938;2024-02-23T04:24:51;25.55;91.99
77523;SHT31;66637;-29.628;-49.938;2024-02-23T04:27:23;25.51;92.05
77523;SHT31;66637;-29.628;-49.938;2024-02-23T04:29:53;25.52;92.00
77523;SHT31;66637;-29.628;-49.938;2024-02-23T04:32:24;25.51;92.12
77523;SHT31;66637;-29.628;-49.938;2024-02-23T04:34:57;25.53;91.98
77523;SHT31;66637;-29.628;-49.938;2024-02-23T04:37:28;25.53;92.11
77523;SHT31;66637;-29.628;-49.938;2024-02-23T04:40:04;25.53;92.14
77523;SHT31;66637;-29.628;-49.938;2024-02-23T04:42:39;25.49;92.11
77523;SHT31;66637;-29.628;-49.938;2024-02-23T04:45:09;25.46;92.35
77523;SHT31;66637;-29.628;-49.938;2024-02-23T04:47:42;25.51;92.16
77523;SHT31;66637;-29.628;-49.938;2024-02-23T04:50:13;25.51;92.09
77523;SHT31;66637;-29.628;-49.938;2024-02-23T04:52:47;25.48;92.11
77523;SHT31;66637;-29.628;-49.938;2024-02-23T04:55:20;25.48;92.12
77523;SHT31;66637;-29.628;-49.938;2024-02-23T04:57:53;25.45;92.12
77523;SHT31;66637;-29.628;-49.938;2024-02-23T05:00:29;25.41;92.03
77523;SHT31;66637;-29.628;-49.938;2024-02-23T05:03:04;25.41;92.02
77523;SHT31;66637;-29.628;-49.938;2024-02-23T05:05:38;25.55;91.91
77523;SHT31;66637;-29.628;-49.938;2024-02-23T05:08:10;25.46;91.86
77523;SHT31;66637;-29.628;-49.938;2024-02-23T05:10:41;25.42;91.92
77523;SHT31;66637;-29.628;-49.938;2024-02-23T05:13:15;25.32;92.01
77523;SHT31;66637;-29.628;-49.938;2024-02-23T05:15:45;25.31;92.07
77523;SHT31;66637;-29.628;-49.938;2024-02-23T05:18:17;25.30;91.94
77523;SHT31;66637;-29.628;-49.938;2024-02-23T05:20:48;25.28;91.96
77523;SHT31;66637;-29.628;-49.938;2024-02-23T05:23:22;25.30;92.04
77523;SHT31;66637;-29.628;-49.938;2024-02-23T05:25:54;25.31;91.99
77523;SHT31;66637;-29.628;-49.938;2024-02-23T05:28:26;25.30;91.87
77523;SHT31;66637;-29.628;-49.938;2024-02-23T05:30:58;25.27;91.79
77523;SHT31;66637;-29.628;-49.938;2024-02-23T05:33:30;25.24;91.74
77523;SHT31;66637;-29.628;-49.938;2024-02-23T05:36:01;25.22;91.72
77523;SHT31;66637;-29.628;-49.938;2024-02-23T05:38:34;25.20;91.60
77523;SHT31;66637;-29.628;-49.938;2024-02-23T05:41:12;25.10;91.71
77523;SHT31;66637;-29.628;-49.938;2024-02-23T05:43:46;25.04;91.69
77523;SHT31;66637;-29.628;-49.938;2024-02-23T05:46:39;25.01;91.83
77523;SHT31;66637;-29.628;-49.938;2024-02-23T05:49:43;25.06;91.76
77523;SHT31;66637;-29.628;-49.938;2024-02-23T05:52:15;25.04;91.64
77523;SHT31;66637;-29.628;-49.938;2024-02-23T05:55:06;25.06;91.75
77523;SHT31;66637;-29.628;-49.938;2024-02-23T05:58:37;25.03;91.51
77523;SHT31;66637;-29.628;-49.938;2024-02-23T06:01:09;25.00;91.52
77523;SHT31;66637;-29.628;-49.938;2024-02-23T06:03:40;25.01;91.46
77523;SHT31;66637;-29.628;-49.938;2024-02-23T06:06:12;24.98;91.52
77523;SHT31;66637;-29.628;-49.938;2024-02-23T06:08:49;25.00;91.54
77523;SHT31;66637;-29.628;-49.938;2024-02-23T06:11:21;25.00;91.44
77523;SHT31;66637;-29.628;-49.938;2024-02-23T06:13:51;25.06;91.47
77523;SHT31;66637;-29.628;-49.938;2024-02-23T06:16:22;25.01;91.37
77523;SHT31;66637;-29.628;-49.938;2024-02-23T06:18:52;24.98;91.36
77523;SHT31;66637;-29.628;-49.938;2024-02-23T06:21:26;25.00;91.50
77523;SHT31;66637;-29.628;-49.938;2024-02-23T06:23:57;25.01;91.31
77523;SHT31;66637;-29.628;-49.938;2024-02-23T06:26:27;24.97;91.40
77523;SHT31;66637;-29.628;-49.938;2024-02-23T06:29:01;24.92;91.37
77523;SHT31;66637;-29.628;-49.938;2024-02-23T06:31:33;24.90;91.55
77523;SHT31;66637;-29.628;-49.938;2024-02-23T06:34:06;24.84;91.61
77523;SHT31;66637;-29.628;-49.938;2024-02-23T06:36:36;24.81;91.71
77523;SHT31;66637;-29.628;-49.938;2024-02-23T06:39:08;24.84;91.68
77523;SHT31;66637;-29.628;-49.938;2024-02-23T06:41:39;24.84;91.70
77523;SHT31;66637;-29.628;-49.938;2024-02-23T06:44:10;24.83;91.64
77523;SHT31;66637;-29.628;-49.938;2024-02-23T06:46:41;24.81;91.62
77523;SHT31;66637;-29.628;-49.938;2024-02-23T06:49:12;24.77;91.73
77523;SHT31;66637;-29.628;-49.938;2024-02-23T06:51:43;24.74;91.85
77523;SHT31;66637;-29.628;-49.938;2024-02-23T06:54:13;24.70;91.98
77523;SHT31;66637;-29.628;-49.938;2024-02-23T06:56:44;24.70;91.88
77523;SHT31;66637;-29.628;-49.938;2024-02-23T06:59:15;24.69;91.95
77523;SHT31;66637;-29.628;-49.938;2024-02-23T07:01:49;24.70;92.22
77523;SHT31;66637;-29.628;-49.938;2024-02-23T07:04:20;24.70;92.22
77523;SHT31;66637;-29.628;-49.938;2024-02-23T07:06:50;24.76;92.39
77523;SHT31;66637;-29.628;-49.938;2024-02-23T07:09:21;24.77;92.44
77523;SHT31;66637;-29.628;-49.938;2024-02-23T07:11:51;24.76;92.61
77523;SHT31;66637;-29.628;-49.938;2024-02-23T07:14:22;24.71;92.57
77523;SHT31;66637;-29.628;-49.938;2024-02-23T07:16:52;24.69;92.85
77523;SHT31;66637;-29.628;-49.938;2024-02-23T07:19:22;24.69;92.77
77523;SHT31;66637;-29.628;-49.938;2024-02-23T07:21:52;24.70;92.86
77523;SHT31;66637;-29.628;-49.938;2024-02-23T07:24:23;24.69;92.92
77523;SHT31;66637;-29.628;-49.938;2024-02-23T07:26:53;24.71;92.78
77523;SHT31;66637;-29.628;-49.938;2024-02-23T07:29:24;24.66;92.91
77523;SHT31;66637;-29.628;-49.938;2024-02-23T07:31:54;24.66;92.95
77523;SHT31;66637;-29.628;-49.938;2024-02-23T07:34:25;24.63;92.90
77523;SHT31;66637;-29.628;-49.938;2024-02-23T07:36:55;24.63;92.89
77523;SHT31;66637;-29.628;-49.938;2024-02-23T07:39:27;24.60;92.92
77523;SHT31;66637;-29.628;-49.938;2024-02-23T07:41:58;24.55;92.88
77523;SHT31;66637;-29.628;-49.938;2024-02-23T07:44:30;24.53;92.77
77523;SHT31;66637;-29.628;-49.938;2024-02-23T07:47:01;24.52;92.74
77523;SHT31;66637;-29.628;-49.938;2024-02-23T07:49:33;24.46;92.74
77523;SHT31;66637;-29.628;-49.938;2024-02-23T07:52:03;24.47;92.70
77523;SHT31;66637;-29.628;-49.938;2024-02-23T07:54:34;24.47;92.62
77523;SHT31;66637;-29.628;-49.938;2024-02-23T07:57:06;24.44;92.49
77523;SHT31;66637;-29.628;-49.938;2024-02-23T07:59:37;24.46;92.55
77523;SHT31;66637;-29.628;-49.938;2024-02-23T08:02:10;24.41;92.58
77523;SHT31;66637;-29.628;-49.938;2024-02-23T08:04:40;24.40;92.60
77523;SHT31;66637;-29.628;-49.938;2024-02-23T08:07:10;24.37;92.67
77523;SHT31;66637;-29.628;-49.938;2024-02-23T08:09:40;24.36;92.74
77523;SHT31;66637;-29.628;-49.938;2024-02-23T08:12:12;24.29;92.79
77523;SHT31;66637;-29.628;-49.938;2024-02-23T08:14:45;24.30;92.69
77523;SHT31;66637;-29.628;-49.938;2024-02-23T08:17:16;24.32;92.77
77523;SHT31;66637;-29.628;-49.938;2024-02-23T08:19:46;24.36;92.84
77523;SHT31;66637;-29.628;-49.938;2024-02-23T08:22:19;24.39;92.86
77523;SHT31;66637;-29.628;-49.938;2024-02-23T08:24:50;24.41;92.79
77523;SHT31;66637;-29.628;-49.938;2024-02-23T08:27:22;24.39;92.79
77523;SHT31;66637;-29.628;-49.938;2024-02-23T08:29:54;24.41;92.69
77523;SHT31;66637;-29.628;-49.938;2024-02-23T08:32:26;24.39;92.65
77523;SHT31;66637;-29.628;-49.938;2024-02-23T08:34:57;24.39;92.75
77523;SHT31;66637;-29.628;-49.938;2024-02-23T08:37:31;24.43;92.72
77523;SHT31;66637;-29.628;-49.938;2024-02-23T08:40:35;24.50;92.70
77523;SHT31;66637;-29.628;-49.938;2024-02-23T08:43:07;24.53;92.72
77523;SHT31;66637;-29.628;-49.938;2024-02-23T08:45:38;24.56;92.69
77523;SHT31;66637;-29.628;-49.938;2024-02-23T08:48:09;24.56;92.58
77523;SHT31;66637;-29.628;-49.938;2024-02-23T08:50:46;24.61;92.47
77523;SHT31;66637;-29.628;-49.938;2024-02-23T08:53:17;24.67;92.42
77523;SHT31;66637;-29.628;-49.938;2024-02-23T08:55:49;24.69;92.35
77523;SHT31;66637;-29.628;-49.938;2024-02-23T08:58:20;24.67;92.22
77523;SHT31;66637;-29.628;-49.938;2024-02-23T09:00:51;24.70;92.09
77523;SHT31;66637;-29.628;-49.938;2024-02-23T09:03:22;24.67;92.11
77523;SHT31;66637;-29.628;-49.938;2024-02-23T09:05:54;24.71;92.06
77523;SHT31;66637;-29.628;-49.938;2024-02-23T09:08:25;24.67;92.04
77523;SHT31;66637;-29.628;-49.938;2024-02-23T09:10:56;24.70;91.94
77523;SHT31;66637;-29.628;-49.938;2024-02-23T09:13:29;24.73;91.93
77523;SHT31;66637;-29.628;-49.938;2024-02-23T09:16:00;24.69;91.79
77523;SHT31;66637;-29.628;-49.938;2024-02-23T09:18:31;24.66;91.85
77523;SHT31;66637;-29.628;-49.938;2024-02-23T09:21:04;24.66;91.77
77523;SHT31;66637;-29.628;-49.938;2024-02-23T09:23:36;24.70;91.77
77523;SHT31;66637;-29.628;-49.938;2024-02-23T09:26:10;24.74;91.80
77523;SHT31;66637;-29.628;-49.938;2024-02-23T09:28:41;24.74;91.60
77523;SHT31;66637;-29.628;-49.938;2024-02-23T09:31:13;24.74;91.49
77523;SHT31;66637;-29.628;-49.938;2024-02-23T09:33:45;24.74;91.65
77523;SHT31;66637;-29.628;-49.938;2024-02-23T09:36:18;24.71;91.47
77523;SHT31;66637;-29.628;-49.938;2024-02-23T09:38:50;24.70;91.72
77523;SHT31;66637;-29.628;-49.938;2024-02-23T09:41:22;24.71;91.64
77523;SHT31;66637;-29.628;-49.938;2024-02-23T09:43:58;24.66;91.77
77523;SHT31;66637;-29.628;-49.938;2024-02-23T09:46:31;24.71;91.68
77523;SHT31;66637;-29.628;-49.938;2024-02-23T09:49:03;24.80;91.47
77523;SHT31;66637;-29.628;-49.938;2024-02-23T09:51:39;24.91;91.35
77523;SHT31;66637;-29.628;-49.938;2024-02-23T09:54:10;24.98;91.38
77523;SHT31;66637;-29.628;-49.938;2024-02-23T09:56:44;25.11;91.04
77523;SHT31;66637;-29.628;-49.938;2024-02-23T09:59:15;25.21;90.96
77523;SHT31;66637;-29.628;-49.938;2024-02-23T10:01:47;25.35;90.75
77523;SHT31;66637;-29.628;-49.938;2024-02-23T10:04:24;25.46;90.18
77523;SHT31;66637;-29.628;-49.938;2024-02-23T10:06:57;25.78;90.32
77523;SHT31;66637;-29.628;-49.938;2024-02-23T10:09:27;25.68;89.88
77523;SHT31;66637;-29.628;-49.938;2024-02-23T10:11:58;25.75;89.65
77523;SHT31;66637;-29.628;-49.938;2024-02-23T10:14:29;25.78;89.42
77523;SHT31;66637;-29.628;-49.938;2024-02-23T10:17:03;25.92;89.50
77523;SHT31;66637;-29.628;-49.938;2024-02-23T10:19:37;26.07;89.14
77523;SHT31;66637;-29.628;-49.938;2024-02-23T10:22:09;26.07;89.08
77523;SHT31;66637;-29.628;-49.938;2024-02-23T10:24:42;26.10;89.03
77523;SHT31;66637;-29.628;-49.938;2024-02-23T10:27:13;26.03;88.82
77523;SHT31;66637;-29.628;-49.938;2024-02-23T10:29:44;26.02;89.11
77523;SHT31;66637;-29.628;-49.938;2024-02-23T10:32:29;26.10;89.00
77523;SHT31;66637;-29.628;-49.938;2024-02-23T10:35:11;26.22;89.23
77523;SHT31;66637;-29.628;-49.938;2024-02-23T10:37:49;26.30;89.08
77523;SHT31;66637;-29.628;-49.938;2024-02-23T10:40:21;26.29;88.74
77523;SHT31;66637;-29.628;-49.938;2024-02-23T10:43:02;26.54;88.76
77523;SHT31;66637;-29.628;-49.938;2024-02-23T10:45:34;26.64;88.45
77523;SHT31;66637;-29.628;-49.938;2024-02-23T10:48:09;26.73;87.92
77523;SHT31;66637;-29.628;-49.938;2024-02-23T10:50:41;26.98;87.71
77523;SHT31;66637;-29.628;-49.938;2024-02-23T10:53:15;27.04;87.28
77523;SHT31;66637;-29.628;-49.938;2024-02-23T10:55:46;27.21;87.16
77523;SHT31;66637;-29.628;-49.938;2024-02-23T10:58:17;27.52;86.87
77523;SHT31;66637;-29.628;-49.938;2024-02-23T11:00:48;27.96;86.23
77523;SHT31;66637;-29.628;-49.938;2024-02-23T11:03:20;28.79;84.64
77523;SHT31;66637;-29.628;-49.938;2024-02-23T11:05:57;29.35;82.65
77523;SHT31;66637;-29.628;-49.938;2024-02-23T11:08:32;29.65;81.66
77523;SHT31;66637;-29.628;-49.938;2024-02-23T11:11:10;30.01;80.62
77523;SHT31;66637;-29.628;-49.938;2024-02-23T11:13:43;30.31;79.52
77523;SHT31;66637;-29.628;-49.938;2024-02-23T11:16:22;30.54;78.62
77523;SHT31;66637;-29.628;-49.938;2024-02-23T11:19:05;30.88;77.85
77523;SHT31;66637;-29.628;-49.938;2024-02-23T11:21:37;30.98;77.56
77523;SHT31;66637;-29.628;-49.938;2024-02-23T11:24:08;30.93;77.08
77523;SHT31;66637;-29.628;-49.938;2024-02-23T11:26:39;31.03;76.77
77523;SHT31;66637;-29.628;-49.938;2024-02-23T11:29:12;31.36;76.46
77523;SHT31;66637;-29.628;-49.938;2024-02-23T11:31:47;31.56;75.64
77523;SHT31;66637;-29.628;-49.938;2024-02-23T11:34:22;31.76;75.74
77523;SHT31;66637;-29.628;-49.938;2024-02-23T11:36:56;31.67;75.92
77523;SHT31;66637;-29.628;-49.938;2024-02-23T11:39:31;31.13;76.23
77523;SHT31;66637;-29.628;-49.938;2024-02-23T11:42:05;31.49;76.13
77523;SHT31;66637;-29.628;-49.938;2024-02-23T11:44:35;31.44;76.09
77523;SHT31;66637;-29.628;-49.938;2024-02-23T11:47:07;31.47;75.87
77523;SHT31;66637;-29.628;-49.938;2024-02-23T11:49:39;31.06;76.74
77523;SHT31;66637;-29.628;-49.938;2024-02-23T11:52:10;31.29;76.16
77523;SHT31;66637;-29.628;-49.938;2024-02-23T11:54:42;31.56;75.76
77523;SHT31;66637;-29.628;-49.938;2024-02-23T11:57:12;32.05;75.07
77523;SHT31;66637;-29.628;-49.938;2024-02-23T11:59:46;32.18;74.01
77523;SHT31;66637;-29.628;-49.938;2024-02-23T12:02:18;31.80;74.54
77523;SHT31;66637;-29.628;-49.938;2024-02-23T12:04:49;31.81;74.93
77523;SHT31;66637;-29.628;-49.938;2024-02-23T12:07:22;31.53;75.22
77523;SHT31;66637;-29.628;-49.938;2024-02-23T12:09:53;31.49;76.32
77523;SHT31;66637;-29.628;-49.938;2024-02-23T12:12:28;31.49;76.28
77523;SHT31;66637;-29.628;-49.938;2024-02-23T12:14:58;31.90;75.09
77523;SHT31;66637;-29.628;-49.938;2024-02-23T12:17:30;32.39;75.12
77523;SHT31;66637;-29.628;-49.938;2024-02-23T12:20:02;32.69;73.89
77523;SHT31;66637;-29.628;-49.938;2024-02-23T12:22:36;32.89;72.24
77523;SHT31;66637;-29.628;-49.938;2024-02-23T12:25:07;32.68;73.11
77523;SHT31;66637;-29.628;-49.938;2024-02-23T12:27:39;32.54;73.20
77523;SHT31;66637;-29.628;-49.938;2024-02-23T12:30:16;32.52;73.88
77523;SHT31;66637;-29.628;-49.938;2024-02-23T12:32:48;32.48;73.35
77523;SHT31;66637;-29.628;-49.938;2024-02-23T12:35:21;32.69;73.33
77523;SHT31;66637;-29.628;-49.938;2024-02-23T12:37:51;32.45;72.67
77523;SHT31;66637;-29.628;-49.938;2024-02-23T12:40:22;31.73;74.23
77523;SHT31;66637;-29.628;-49.938;2024-02-23T12:42:53;32.03;74.55
77523;SHT31;66637;-29.628;-49.938;2024-02-23T12:45:24;32.38;74.04
77523;SHT31;66637;-29.628;-49.938;2024-02-23T12:47:59;32.75;72.81
77523;SHT31;66637;-29.628;-49.938;2024-02-23T12:50:30;33.19;72.04
77523;SHT31;66637;-29.628;-49.938;2024-02-23T12:53:03;33.29;71.83
77523;SHT31;66637;-29.628;-49.938;2024-02-23T12:55:35;33.12;72.04
77523;SHT31;66637;-29.628;-49.938;2024-02-23T12:58:07;33.05;71.28
77523;SHT31;66637;-29.628;-49.938;2024-02-23T13:00:37;33.37;70.62
77523;SHT31;66637;-29.628;-49.938;2024-02-23T13:03:08;32.98;72.05
77523;SHT31;66637;-29.628;-49.938;2024-02-23T13:05:40;31.44;74.90
77523;SHT31;66637;-29.628;-49.938;2024-02-23T13:08:12;30.82;77.01
77523;SHT31;66637;-29.628;-49.938;2024-02-23T13:10:44;31.43;76.30
77523;SHT31;66637;-29.628;-49.938;2024-02-23T13:13:19;32.20;74.43
77523;SHT31;66637;-29.628;-49.938;2024-02-23T13:15:51;32.54;73.41
77523;SHT31;66637;-29.628;-49.938;2024-02-23T13:18:23;32.82;72.29
77523;SHT31;66637;-29.628;-49.938;2024-02-23T13:20:54;32.96;72.38
77523;SHT31;66637;-29.628;-49.938;2024-02-23T13:23:26;32.13;72.64
77523;SHT31;66637;-29.628;-49.938;2024-02-23T13:25:57;31.56;74.61
77523;SHT31;66637;-29.628;-49.938;2024-02-23T13:28:28;31.76;76.01
77523;SHT31;66637;-29.628;-49.938;2024-02-23T13:30:58;32.44;74.21
77523;SHT31;66637;-29.628;-49.938;2024-02-23T13:33:29;32.32;73.46
77523;SHT31;66637;-29.628;-49.938;2024-02-23T13:36:00;32.48;72.86
77523;SHT31;66637;-29.628;-49.938;2024-02-23T13:38:30;32.25;72.78
77523;SHT31;66637;-29.628;-49.938;2024-02-23T13:41:04;32.59;73.25
77523;SHT31;66637;-29.628;-49.938;2024-02-23T13:43:37;32.68;72.79
77523;SHT31;66637;-29.628;-49.938;2024-02-23T13:46:08;32.90;72.38
77523;SHT31;66637;-29.628;-49.938;2024-02-23T13:48:39;33.03;71.74
77523;SHT31;66637;-29.628;-49.938;2024-02-23T13:51:13;32.83;72.85
77523;SHT31;66637;-29.628;-49.938;2024-02-23T13:53:45;32.99;73.49
77523;SHT31;66637;-29.628;-49.938;2024-02-23T13:56:20;32.98;72.40
77523;SHT31;66637;-29.628;-49.938;2024-02-23T13:58:57;33.12;72.36
77523;SHT31;66637;-29.628;-49.938;2024-02-23T14:01:29;33.47;73.46
77523;SHT31;66637;-29.628;-49.938;2024-02-23T14:04:06;32.29;73.35
77523;SHT31;66637;-29.628;-49.938;2024-02-23T14:06:39;32.05;74.01
77523;SHT31;66637;-29.628;-49.938;2024-02-23T14:09:11;32.07;74.39
77523;SHT31;66637;-29.628;-49.938;2024-02-23T14:11:42;32.05;73.82
77523;SHT31;66637;-29.628;-49.938;2024-02-23T14:14:13;32.13;74.17
77523;SHT31;66637;-29.628;-49.938;2024-02-23T14:16:45;32.35;73.24
77523;SHT31;66637;-29.628;-49.938;2024-02-23T14:19:16;32.48;73.04
77523;SHT31;66637;-29.628;-49.938;2024-02-23T14:21:48;32.75;72.86
77523;SHT31;66637;-29.628;-49.938;2024-02-23T14:24:20;33.12;72.71
77523;SHT31;66637;-29.628;-49.938;2024-02-23T14:26:50;32.96;72.33
77523;SHT31;66637;-29.628;-49.938;2024-02-23T14:29:27;33.00;72.64
77523;SHT31;66637;-29.628;-49.938;2024-02-23T14:31:58;33.17;71.75
77523;SHT31;66637;-29.628;-49.938;2024-02-23T14:34:30;33.37;71.67
77523;SHT31;66637;-29.628;-49.938;2024-02-23T14:37:03;33.64;71.56
77523;SHT31;66637;-29.628;-49.938;2024-02-23T14:39:34;33.50;71.19
77523;SHT31;66637;-29.628;-49.938;2024-02-23T14:42:04;33.53;71.51
77523;SHT31;66637;-29.628;-49.938;2024-02-23T14:44:35;33.68;71.20
77523;SHT31;66637;-29.628;-49.938;2024-02-23T14:47:06;33.27;71.60
77523;SHT31;66637;-29.628;-49.938;2024-02-23T14:49:37;33.13;72.84
77523;SHT31;66637;-29.628;-49.938;2024-02-23T14:52:09;33.53;72.36
77523;SHT31;66637;-29.628;-49.938;2024-02-23T14:54:40;33.25;72.36
77523;SHT31;66637;-29.628;-49.938;2024-02-23T14:57:28;33.53;72.23
77523;SHT31;66637;-29.628;-49.938;2024-02-23T15:00:00;33.60;71.54
77523;SHT31;66637;-29.628;-49.938;2024-02-23T15:03:27;34.09;72.25
77523;SHT31;66637;-29.628;-49.938;2024-02-23T15:06:02;34.08;70.66
77523;SHT31;66637;-29.628;-49.938;2024-02-23T15:08:33;33.91;71.29
77523;SHT31;66637;-29.628;-49.938;2024-02-23T15:15:21;33.98;71.37
77523;SHT31;66637;-29.628;-49.938;2024-02-23T15:17:53;34.01;70.65
77523;SHT31;66637;-29.628;-49.938;2024-02-23T15:20:24;33.81;71.54
77523;SHT31;66637;-29.628;-49.938;2024-02-23T15:22:56;33.90;71.03
77523;SHT31;66637;-29.628;-49.938;2024-02-23T15:25:28;33.40;71.94